Time;durP1;ratioP1;P1;durP2;ratioP2;P2;SDS_P1;SDS_P2;PMS_P1;PMS_P2;Temp;Humidity;BMP_temperature;BMP_pressure;BME280_temperature;BME280_humidity;BME280_pressure;Samples;Min_cycle;Max_cycle;Signal;HPM_P1;HPM_P2
2021/10/31 00:02:03;;;;;;;17.67;10.95;;;11.10;93.90;;;;;;4943943;28;20050;-75
2021/10/31 00:04:28;;;;;;;15.50;10.15;;;11.10;93.90;;;;;;4944085;28;20177;-75
2021/10/31 00:06:54;;;;;;;17.77;10.82;;;11.10;94.20;;;;;;4947451;28;20077;-74
2021/10/31 00:09:20;;;;;;;16.65;10.43;;;11.10;94.30;;;;;;4944662;28;20023;-75
2021/10/31 00:11:45;;;;;;;17.88;10.80;;;11.00;94.40;;;;;;4946621;28;20027;-74
2021/10/31 00:14:11;;;;;;;18.05;10.65;;;11.10;94.50;;;;;;4963087;28;20035;-75
2021/10/31 00:16:36;;;;;;;15.00;10.77;;;11.10;94.40;;;;;;4941954;28;20027;-74
2021/10/31 00:19:02;;;;;;;17.60;10.95;;;11.10;94.10;;;;;;4963485;28;20456;-74
2021/10/31 00:21:28;;;;;;;17.42;10.50;;;11.10;93.90;;;;;;4962046;28;20441;-75
2021/10/31 00:23:54;;;;;;;15.23;10.50;;;11.20;93.70;;;;;;4960211;28;20031;-74
2021/10/31 00:26:19;;;;;;;17.42;11.10;;;11.20;93.70;;;;;;4962415;28;20031;-75
2021/10/31 00:28:45;;;;;;;14.95;10.73;;;11.20;93.40;;;;;;4960104;28;20027;-75
2021/10/31 00:31:11;;;;;;;19.88;10.98;;;11.20;93.50;;;;;;4961660;28;20393;-75
2021/10/31 00:33:37;;;;;;;18.10;11.60;;;11.20;93.60;;;;;;4946081;28;20027;-74
2021/10/31 00:36:04;;;;;;;14.48;10.52;;;11.30;93.30;;;;;;4959404;28;20526;-75
2021/10/31 00:38:29;;;;;;;19.88;11.52;;;11.30;93.30;;;;;;4961782;28;20058;-75
2021/10/31 00:40:55;;;;;;;17.33;10.48;;;11.40;92.80;;;;;;4945667;28;20079;-74
2021/10/31 00:43:20;;;;;;;19.45;11.07;;;11.30;93.20;;;;;;4960611;28;20417;-74
2021/10/31 00:45:46;;;;;;;17.63;10.40;;;11.40;92.60;;;;;;4962436;28;20091;-74
2021/10/31 00:48:12;;;;;;;16.80;10.80;;;11.40;92.90;;;;;;4963814;28;20019;-74
2021/10/31 00:50:38;;;;;;;16.60;10.60;;;11.40;92.60;;;;;;4961032;28;20110;-74
2021/10/31 00:53:04;;;;;;;15.48;9.80;;;11.40;92.50;;;;;;4942923;28;20038;-74
2021/10/31 00:55:30;;;;;;;17.15;10.27;;;11.50;92.60;;;;;;4959999;28;20569;-75
2021/10/31 00:57:57;;;;;;;19.42;11.95;;;11.50;92.30;;;;;;4959941;28;20117;-74
2021/10/31 01:00:23;;;;;;;15.50;10.57;;;11.50;92.40;;;;;;4942784;28;20278;-75
2021/10/31 01:02:49;;;;;;;17.40;10.98;;;11.50;92.40;;;;;;4946014;28;20117;-75
2021/10/31 01:05:19;;;;;;;14.32;10.15;;;11.50;92.60;;;;;;4960104;28;20086;-74
2021/10/31 01:08:13;;;;;;;17.40;10.97;;;11.60;92.40;;;;;;4942424;28;20022;-75
2021/10/31 01:11:06;;;;;;;18.30;11.20;;;11.60;92.20;;;;;;4963673;28;20464;-74
2021/10/31 01:13:48;;;;;;;16.35;11.02;;;11.60;92.40;;;;;;4972670;28;20093;-75
2021/10/31 01:16:34;;;;;;;16.45;10.82;;;11.60;92.50;;;;;;4954818;28;20062;-74
2021/10/31 01:19:29;;;;;;;18.63;11.68;;;11.60;92.60;;;;;;4949641;28;20042;-73
2021/10/31 01:22:02;;;;;;;17.23;12.20;;;11.70;92.80;;;;;;4943520;28;20138;-75
2021/10/31 01:24:45;;;;;;;18.33;12.68;;;11.70;92.90;;;;;;4943225;28;20105;-75
2021/10/31 01:27:34;;;;;;;18.02;13.10;;;11.70;93.00;;;;;;4962742;28;20022;-75
2021/10/31 01:30:36;;;;;;;20.80;12.73;;;11.70;93.10;;;;;;4961357;28;20050;-75
2021/10/31 01:33:13;;;;;;;19.52;12.80;;;11.60;93.60;;;;;;4948016;28;20050;-75
2021/10/31 01:35:56;;;;;;;18.40;13.68;;;11.50;93.70;;;;;;4953959;28;20079;-74
2021/10/31 01:39:08;;;;;;;22.38;13.85;;;11.50;94.00;;;;;;4958971;28;20079;-74
2021/10/31 01:41:53;;;;;;;18.80;13.20;;;11.40;94.10;;;;;;4898771;29;20222;-74
2021/10/31 01:44:28;;;;;;;22.67;14.27;;;11.40;94.30;;;;;;4959971;28;20105;-74
2021/10/31 01:47:32;;;;;;;20.40;14.63;;;11.50;94.70;;;;;;4960664;28;20058;-74
2021/10/31 01:50:13;;;;;;;21.10;15.25;;;11.50;94.60;;;;;;4950172;28;20047;-75
2021/10/31 01:52:50;;;;;;;21.75;14.48;;;11.50;94.60;;;;;;4959734;28;20037;-75
2021/10/31 01:55:24;;;;;;;24.15;14.82;;;11.40;94.60;;;;;;4951579;28;20031;-74
2021/10/31 01:57:55;;;;;;;21.77;15.18;;;11.40;94.80;;;;;;4955137;28;20433;-74
2021/10/31 02:00:21;;;;;;;25.58;14.25;;;11.40;94.60;;;;;;4962597;28;20145;-75
2021/10/31 02:02:47;;;;;;;21.88;15.07;;;11.40;94.80;;;;;;4955214;28;20098;-75
2021/10/31 02:05:16;;;;;;;21.88;14.82;;;11.40;95.00;;;;;;4956294;28;20046;-74
2021/10/31 02:07:50;;;;;;;21.90;14.65;;;11.30;95.10;;;;;;4961669;28;20135;-74
2021/10/31 02:10:17;;;;;;;24.85;16.33;;;11.30;95.30;;;;;;4952100;28;20034;-74
2021/10/31 02:12:46;;;;;;;22.70;15.20;;;11.30;95.30;;;;;;4958456;28;20113;-75
2021/10/31 02:15:16;;;;;;;24.20;16.20;;;11.20;95.20;;;;;;4960020;28;20034;-74
2021/10/31 02:17:44;;;;;;;24.65;15.90;;;11.10;95.30;;;;;;4956562;28;20439;-74
2021/10/31 02:20:11;;;;;;;22.15;15.77;;;11.20;95.50;;;;;;4959174;28;20516;-74
2021/10/31 02:22:38;;;;;;;21.83;16.45;;;11.20;95.60;;;;;;4956698;28;20110;-74
2021/10/31 02:25:04;;;;;;;26.70;15.85;;;11.10;95.60;;;;;;4941229;28;20031;-74
2021/10/31 02:27:32;;;;;;;26.52;16.35;;;11.10;95.70;;;;;;4944267;28;20055;-75
2021/10/31 02:29:58;;;;;;;24.90;15.68;;;11.10;95.70;;;;;;4962845;28;20395;-74
2021/10/31 02:32:29;;;;;;;24.92;16.05;;;11.10;95.70;;;;;;4940411;28;20349;-74
2021/10/31 02:34:55;;;;;;;24.17;16.17;;;11.20;95.60;;;;;;4956584;28;20805;-75
2021/10/31 02:37:23;;;;;;;22.35;15.98;;;11.20;95.50;;;;;;4964721;28;20058;-74
2021/10/31 02:39:49;;;;;;;23.45;15.90;;;11.20;95.50;;;;;;4963315;28;20046;-75
2021/10/31 02:42:15;;;;;;;23.48;15.95;;;11.30;95.50;;;;;;4960223;28;20035;-74
2021/10/31 02:44:42;;;;;;;21.02;15.98;;;11.30;95.40;;;;;;4963454;28;20019;-74
2021/10/31 02:47:10;;;;;;;21.20;15.80;;;11.30;95.30;;;;;;4949571;28;20129;-75
2021/10/31 02:49:36;;;;;;;21.20;15.45;;;11.40;95.20;;;;;;4945952;28;20093;-75
2021/10/31 02:52:23;;;;;;;23.52;16.23;;;11.30;95.10;;;;;;4965657;28;20416;-75
2021/10/31 02:55:18;;;;;;;19.88;15.15;;;11.20;95.10;;;;;;4960340;28;20027;-75
2021/10/31 02:58:11;;;;;;;23.13;16.08;;;11.20;95.20;;;;;;4950278;28;20085;-74
2021/10/31 03:00:39;;;;;;;22.85;15.15;;;11.10;95.30;;;;;;4962325;28;20039;-74
2021/10/31 03:03:07;;;;;;;21.73;15.40;;;11.20;95.60;;;;;;4945316;28;20086;-75
2021/10/31 03:05:33;;;;;;;22.23;14.45;;;11.20;95.50;;;;;;4961041;28;20114;-75
2021/10/31 03:07:59;;;;;;;19.88;14.32;;;11.20;95.40;;;;;;4956537;28;20090;-74
2021/10/31 03:10:25;;;;;;;20.63;15.75;;;11.20;95.40;;;;;;4959935;28;20076;-74
2021/10/31 03:12:50;;;;;;;22.55;15.27;;;11.30;95.30;;;;;;4979454;23;20031;-80
2021/10/31 03:15:16;;;;;;;22.55;15.00;;;11.30;95.30;;;;;;4974573;28;20031;-80
2021/10/31 03:17:42;;;;;;;22.10;15.70;;;11.30;95.30;;;;;;4990080;28;20054;-80
2021/10/31 03:20:08;;;;;;;23.20;15.50;;;11.30;95.20;;;;;;4983142;28;20038;-80
2021/10/31 03:22:33;;;;;;;19.55;14.30;;;11.30;95.20;;;;;;4991393;28;20072;-80
2021/10/31 03:24:59;;;;;;;21.45;14.73;;;11.30;95.10;;;;;;4974895;28;20120;-80
2021/10/31 03:27:25;;;;;;;23.35;14.40;;;11.30;95.10;;;;;;4959298;28;20066;-80
2021/10/31 03:29:51;;;;;;;20.58;14.63;;;11.30;95.00;;;;;;4972831;28;20038;-80
2021/10/31 03:32:17;;;;;;;21.05;14.57;;;11.30;94.90;;;;;;4963107;28;20495;-80
2021/10/31 03:34:42;;;;;;;22.42;14.95;;;11.30;95.00;;;;;;4955638;28;20023;-80
2021/10/31 03:37:08;;;;;;;20.67;14.80;;;11.30;94.90;;;;;;4972865;28;20034;-80
2021/10/31 03:39:34;;;;;;;22.00;15.00;;;11.30;94.90;;;;;;4971818;28;20079;-80
2021/10/31 03:41:59;;;;;;;22.55;15.43;;;11.30;95.10;;;;;;4961952;28;20595;-80
2021/10/31 03:44:25;;;;;;;20.42;15.18;;;11.30;95.00;;;;;;4971646;28;20030;-80
2021/10/31 03:46:51;;;;;;;19.58;14.18;;;11.30;95.00;;;;;;4957191;28;20084;-80
2021/10/31 03:49:17;;;;;;;19.55;14.52;;;11.30;95.00;;;;;;4956032;28;20094;-80
2021/10/31 03:51:44;;;;;;;22.02;14.55;;;11.20;95.00;;;;;;4954679;28;20090;-80
2021/10/31 03:54:10;;;;;;;19.40;13.80;;;11.20;95.20;;;;;;4969611;28;20095;-80
2021/10/31 03:56:35;;;;;;;21.17;15.57;;;11.00;95.20;;;;;;4969774;28;20022;-80
2021/10/31 03:59:01;;;;;;;19.67;14.65;;;11.00;95.60;;;;;;4970538;28;20463;-80
2021/10/31 04:01:29;;;;;;;23.15;15.65;;;10.90;95.70;;;;;;4983204;28;20523;-80
2021/10/31 04:03:54;;;;;;;21.00;16.05;;;10.80;95.70;;;;;;4988585;28;20223;-80
2021/10/31 04:06:20;;;;;;;25.15;15.75;;;10.70;96.00;;;;;;4994126;28;20049;-80
2021/10/31 04:08:45;;;;;;;24.35;16.20;;;10.60;96.20;;;;;;4992562;28;20088;-80
2021/10/31 04:11:11;;;;;;;24.10;15.77;;;10.60;96.40;;;;;;4976929;28;20042;-80
2021/10/31 04:13:36;;;;;;;26.90;16.95;;;10.50;96.50;;;;;;4975187;28;20043;-80
2021/10/31 04:16:02;;;;;;;27.52;17.55;;;10.40;96.50;;;;;;4981855;28;20019;-80
2021/10/31 04:18:28;;;;;;;26.83;17.60;;;10.40;96.70;;;;;;4994402;28;20059;-80
2021/10/31 04:20:53;;;;;;;29.10;18.08;;;10.40;96.90;;;;;;4971900;28;20039;-80
2021/10/31 04:23:19;;;;;;;29.83;17.92;;;10.30;97.00;;;;;;4982276;28;20058;-80
2021/10/31 04:25:44;;;;;;;34.33;19.63;;;10.30;97.20;;;;;;4976677;28;20034;-80
2021/10/31 04:28:10;;;;;;;30.90;19.55;;;10.20;97.10;;;;;;4989742;28;20027;-80
2021/10/31 04:30:35;;;;;;;32.65;19.70;;;10.20;97.30;;;;;;4994452;28;20030;-80
2021/10/31 04:33:01;;;;;;;33.70;19.55;;;10.10;97.30;;;;;;4988629;28;20062;-80
2021/10/31 04:35:26;;;;;;;32.30;20.15;;;10.10;97.40;;;;;;4979692;28;20063;-80
2021/10/31 04:37:55;;;;;;;35.50;20.50;;;10.00;97.50;;;;;;4981242;28;20102;-80
2021/10/31 04:40:22;;;;;;;41.08;22.02;;;10.10;97.70;;;;;;4977525;28;20098;-80
2021/10/31 04:42:48;;;;;;;39.47;21.23;;;10.10;97.70;;;;;;4973770;28;22530;-80
2021/10/31 04:45:13;;;;;;;33.80;21.27;;;10.10;97.70;;;;;;4974445;28;20043;-80
2021/10/31 04:47:40;;;;;;;38.17;20.63;;;10.00;97.70;;;;;;4971646;28;20045;-80
2021/10/31 04:50:05;;;;;;;38.95;22.52;;;9.90;97.70;;;;;;4975886;28;20078;-80
2021/10/31 04:52:32;;;;;;;36.30;21.98;;;10.00;97.90;;;;;;4974116;28;20039;-80
2021/10/31 04:54:57;;;;;;;37.35;21.13;;;9.90;97.80;;;;;;4973232;28;20019;-80
2021/10/31 04:57:23;;;;;;;37.15;20.63;;;9.80;97.80;;;;;;4970209;28;20028;-80
2021/10/31 04:59:48;;;;;;;40.35;22.05;;;9.70;97.90;;;;;;4956010;28;20110;-80
2021/10/31 05:02:14;;;;;;;41.30;23.10;;;9.80;98.10;;;;;;4971121;28;20038;-80
2021/10/31 05:04:39;;;;;;;42.55;23.00;;;9.80;98.10;;;;;;4969153;28;20023;-80
2021/10/31 05:07:05;;;;;;;47.78;23.20;;;9.70;98.20;;;;;;4968413;28;20030;-80
2021/10/31 05:09:30;;;;;;;47.28;23.20;;;9.80;98.30;;;;;;4954307;28;20027;-80
2021/10/31 05:11:56;;;;;;;53.33;24.58;;;9.70;98.30;;;;;;4972587;28;20046;-80
2021/10/31 05:14:21;;;;;;;46.45;24.48;;;9.80;98.40;;;;;;4970604;28;20035;-80
2021/10/31 05:16:48;;;;;;;45.08;24.17;;;9.80;98.40;;;;;;4968820;28;20078;-80
2021/10/31 05:19:13;;;;;;;45.90;24.23;;;9.80;98.40;;;;;;4968136;28;20413;-80
2021/10/31 05:21:39;;;;;;;48.75;24.15;;;9.80;98.50;;;;;;4967750;28;20086;-81
2021/10/31 05:24:04;;;;;;;48.17;24.05;;;9.80;98.40;;;;;;4968551;28;20488;-81
2021/10/31 05:26:30;;;;;;;45.00;23.90;;;9.80;98.40;;;;;;4968105;28;20117;-81
2021/10/31 05:28:55;;;;;;;43.38;22.88;;;9.80;98.50;;;;;;4963702;28;20046;-80
2021/10/31 05:31:22;;;;;;;44.92;23.55;;;9.80;98.40;;;;;;4967372;28;20034;-81
2021/10/31 05:33:48;;;;;;;46.83;24.92;;;9.80;98.40;;;;;;4962046;28;20034;-81
2021/10/31 05:36:14;;;;;;;43.92;23.40;;;9.80;98.40;;;;;;4958667;28;20038;-81
2021/10/31 05:38:39;;;;;;;46.58;23.13;;;9.80;98.40;;;;;;4961591;28;20593;-81
2021/10/31 05:41:05;;;;;;;40.78;21.73;;;9.80;98.50;;;;;;4954406;28;20523;-81
2021/10/31 05:43:30;;;;;;;48.50;23.02;;;9.80;98.40;;;;;;4967396;28;20039;-82
2021/10/31 05:45:57;;;;;;;43.25;23.95;;;9.90;98.50;;;;;;4951787;28;20057;-81
2021/10/31 05:48:24;;;;;;;41.63;22.17;;;9.80;98.30;;;;;;4968060;28;20031;-80
2021/10/31 05:50:49;;;;;;;41.83;23.02;;;9.80;98.40;;;;;;4967447;28;20062;-81
2021/10/31 05:53:15;;;;;;;42.63;23.98;;;9.80;98.50;;;;;;4973678;28;20035;-81
2021/10/31 05:55:40;;;;;;;50.47;24.50;;;9.80;98.40;;;;;;4975171;28;20035;-82
2021/10/31 05:58:06;;;;;;;43.45;24.02;;;9.80;98.40;;;;;;4968064;28;20030;-82
2021/10/31 06:00:32;;;;;;;45.83;23.95;;;9.80;98.30;;;;;;4974951;28;20416;-82
2021/10/31 06:02:58;;;;;;;46.85;23.50;;;9.80;98.50;;;;;;4975708;28;20033;-82
2021/10/31 06:05:24;;;;;;;46.33;23.13;;;9.80;98.40;;;;;;4975579;28;20027;-81
2021/10/31 06:07:49;;;;;;;44.28;23.30;;;9.70;98.40;;;;;;4961174;28;20023;-81
2021/10/31 06:10:15;;;;;;;49.42;24.05;;;9.70;98.40;;;;;;4977046;28;20058;-81
2021/10/31 06:12:45;;;;;;;45.28;22.90;;;9.70;98.50;;;;;;4974149;28;20045;-82
2021/10/31 06:15:13;;;;;;;46.42;22.92;;;9.60;98.40;;;;;;4976604;28;20129;-81
2021/10/31 06:17:40;;;;;;;44.90;23.10;;;9.50;98.50;;;;;;4975105;28;20030;-81
2021/10/31 06:20:10;;;;;;;48.15;24.83;;;9.60;98.60;;;;;;4955962;28;20544;-81
2021/10/31 06:22:36;;;;;;;47.60;23.85;;;9.60;98.60;;;;;;4965556;28;20034;-81
2021/10/31 06:25:02;;;;;;;47.60;23.85;;;9.60;98.70;;;;;;4973479;28;20039;-81
2021/10/31 06:27:28;;;;;;;48.08;22.20;;;9.50;98.60;;;;;;4956552;28;20019;-81
2021/10/31 06:29:53;;;;;;;45.53;24.05;;;9.40;98.60;;;;;;4973587;28;20398;-82
2021/10/31 06:32:19;;;;;;;55.45;24.58;;;9.50;98.80;;;;;;4975100;28;20031;-81
2021/10/31 06:34:44;;;;;;;50.28;25.45;;;9.50;98.80;;;;;;4952446;28;20031;-81
2021/10/31 06:37:10;;;;;;;53.42;25.23;;;9.60;98.90;;;;;;4970225;28;20079;-82
2021/10/31 06:39:35;;;;;;;55.35;24.98;;;9.60;98.90;;;;;;4971447;28;20059;-80
2021/10/31 06:42:01;;;;;;;54.15;25.33;;;9.60;98.90;;;;;;4974490;28;20086;-81
2021/10/31 06:44:26;;;;;;;51.15;25.30;;;9.60;98.80;;;;;;4954433;28;20461;-81
2021/10/31 06:46:52;;;;;;;54.75;24.23;;;9.60;98.80;;;;;;4976471;28;20087;-81
2021/10/31 06:49:18;;;;;;;55.00;24.70;;;9.70;98.90;;;;;;4976157;28;20065;-81
2021/10/31 06:51:43;;;;;;;48.05;24.25;;;9.70;98.80;;;;;;4978886;28;20059;-81
2021/10/31 06:54:09;;;;;;;53.85;24.80;;;9.70;98.80;;;;;;4969465;28;20030;-81
2021/10/31 06:56:35;;;;;;;45.47;22.90;;;9.70;98.80;;;;;;4975358;28;20026;-81
2021/10/31 06:59:01;;;;;;;53.38;25.23;;;9.70;98.70;;;;;;4970407;28;20416;-81
2021/10/31 07:01:27;;;;;;;51.83;24.40;;;9.80;98.90;;;;;;4975523;28;20218;-81
2021/10/31 07:03:52;;;;;;;45.78;23.10;;;9.80;98.80;;;;;;4964402;28;20086;-81
2021/10/31 07:06:18;;;;;;;45.70;22.52;;;9.80;98.70;;;;;;4953356;28;20027;-79
2021/10/31 07:08:44;;;;;;;46.55;22.95;;;9.80;98.70;;;;;;4982120;28;20547;-79
2021/10/31 07:11:10;;;;;;;41.88;21.58;;;9.80;98.70;;;;;;4976207;28;20041;-80
2021/10/31 07:13:37;;;;;;;44.28;23.15;;;9.80;98.60;;;;;;4975282;28;20464;-81
2021/10/31 07:16:02;;;;;;;40.47;22.48;;;9.80;98.60;;;;;;4951078;28;20543;-81
2021/10/31 07:18:28;;;;;;;41.30;22.55;;;9.80;98.70;;;;;;4955537;28;20061;-81
2021/10/31 07:20:53;;;;;;;39.38;22.15;;;9.80;98.60;;;;;;4971452;28;20031;-81
2021/10/31 07:23:19;;;;;;;39.88;22.48;;;9.90;98.60;;;;;;4967844;28;20035;-81
2021/10/31 07:25:44;;;;;;;43.72;22.75;;;9.90;98.60;;;;;;4951692;28;20400;-81
2021/10/31 07:28:10;;;;;;;42.13;21.88;;;10.10;98.60;;;;;;4968031;28;20031;-80
2021/10/31 07:30:35;;;;;;;42.97;21.35;;;10.10;98.50;;;;;;4969580;28;20039;-81
2021/10/31 07:33:02;;;;;;;38.35;20.58;;;10.20;98.30;;;;;;4968695;28;20511;-81
2021/10/31 07:35:29;;;;;;;41.17;21.17;;;10.20;98.20;;;;;;4972828;28;20030;-81
2021/10/31 07:37:55;;;;;;;35.38;20.60;;;10.30;98.10;;;;;;4970466;28;20480;-80
2021/10/31 07:40:22;;;;;;;34.20;19.13;;;10.40;97.90;;;;;;4969593;28;20041;-81
2021/10/31 07:42:47;;;;;;;34.83;19.50;;;10.40;97.80;;;;;;4960217;28;20726;-82
2021/10/31 07:45:13;;;;;;;33.72;17.73;;;10.50;97.60;;;;;;4978325;28;20039;-82
2021/10/31 07:47:39;;;;;;;31.25;17.00;;;10.50;97.40;;;;;;4975575;28;20038;-81
2021/10/31 07:50:05;;;;;;;26.60;17.45;;;10.50;97.30;;;;;;4969556;28;20351;-82
2021/10/31 07:52:31;;;;;;;27.55;17.50;;;10.60;97.10;;;;;;4976988;28;20034;-81
2021/10/31 07:54:58;;;;;;;27.10;17.25;;;10.60;97.00;;;;;;4976282;28;20029;-80
2021/10/31 07:57:25;;;;;;;27.58;17.63;;;10.60;96.90;;;;;;4963531;28;20035;-82
2021/10/31 07:59:51;;;;;;;27.10;16.45;;;10.60;96.80;;;;;;4964682;28;20117;-81
2021/10/31 08:02:17;;;;;;;24.95;17.00;;;10.70;96.70;;;;;;4968974;28;20480;-81
2021/10/31 08:04:43;;;;;;;30.50;17.73;;;10.70;96.70;;;;;;4974785;28;20081;-81
2021/10/31 08:07:09;;;;;;;25.77;16.42;;;10.80;96.70;;;;;;4969314;28;20086;-79
2021/10/31 08:09:35;;;;;;;22.98;16.05;;;10.80;96.60;;;;;;4980908;28;20030;-82
2021/10/31 08:12:01;;;;;;;21.98;15.80;;;10.80;96.50;;;;;;4956966;28;20065;-81
2021/10/31 08:14:26;;;;;;;27.60;16.35;;;10.80;96.40;;;;;;4971907;28;20795;-81
2021/10/31 08:16:52;;;;;;;24.80;15.80;;;10.80;96.40;;;;;;4976136;28;20023;-81
2021/10/31 08:19:24;;;;;;;22.83;15.68;;;10.70;96.40;;;;;;4957218;28;20396;-82
2021/10/31 08:21:50;;;;;;;24.60;16.58;;;11.00;96.60;;;;;;4974444;28;20432;-81
2021/10/31 08:24:16;;;;;;;24.63;16.27;;;11.00;96.40;;;;;;4953190;28;20030;-81
2021/10/31 08:26:41;;;;;;;23.40;15.18;;;11.00;96.10;;;;;;4969304;28;20400;-81
2021/10/31 08:29:09;;;;;;;25.92;15.73;;;11.10;96.10;;;;;;4972578;28;20026;-79
2021/10/31 08:31:38;;;;;;;25.95;15.30;;;11.10;95.80;;;;;;4970960;28;20061;-81
2021/10/31 08:34:04;;;;;;;20.90;14.77;;;11.20;95.70;;;;;;4957491;28;20126;-81
2021/10/31 08:36:31;;;;;;;20.25;14.90;;;11.40;95.70;;;;;;4972536;28;20585;-81
2021/10/31 08:38:57;;;;;;;19.20;13.32;;;11.50;94.90;;;;;;4973045;28;20054;-81
2021/10/31 08:41:24;;;;;;;24.23;13.88;;;11.60;95.00;;;;;;4973589;28;20057;-81
2021/10/31 08:43:52;;;;;;;24.45;13.90;;;11.60;94.70;;;;;;4972397;28;20035;-81
2021/10/31 08:46:17;;;;;;;21.45;13.48;;;11.70;93.90;;;;;;4972500;28;20026;-82
2021/10/31 08:48:44;;;;;;;20.80;13.70;;;11.90;93.80;;;;;;4969977;28;20444;-79
2021/10/31 08:51:10;;;;;;;20.38;12.23;;;12.00;93.50;;;;;;4966724;28;20489;-81
2021/10/31 08:53:37;;;;;;;20.50;13.55;;;12.10;93.00;;;;;;4961271;28;20122;-81
2021/10/31 08:56:04;;;;;;;17.40;12.23;;;12.20;93.00;;;;;;4957509;28;20035;-81
2021/10/31 08:58:30;;;;;;;22.42;13.10;;;12.30;92.60;;;;;;4966704;28;20042;-82
2021/10/31 09:00:55;;;;;;;20.45;11.90;;;12.30;92.40;;;;;;4956636;28;20031;-82
2021/10/31 09:03:21;;;;;;;21.17;11.65;;;12.50;92.00;;;;;;4971328;28;20043;-81
2021/10/31 09:05:46;;;;;;;16.90;11.52;;;12.60;91.60;;;;;;4966309;28;20508;-81
2021/10/31 09:08:12;;;;;;;15.70;10.90;;;12.60;91.20;;;;;;4966812;28;20031;-80
2021/10/31 09:10:38;;;;;;;18.05;11.07;;;12.80;91.40;;;;;;4953965;28;20527;-80
2021/10/31 09:15:32;;;;;;;15.43;10.10;;;12.90;90.40;;;;;;4998344;23;21001;-75
2021/10/31 09:18:02;;;;;;;16.05;9.80;;;12.90;89.90;;;;;;4955306;28;20030;-76
2021/10/31 09:20:32;;;;;;;17.67;10.40;;;12.90;90.00;;;;;;4970595;28;20040;-76
2021/10/31 09:22:59;;;;;;;14.88;9.43;;;12.90;90.00;;;;;;4972136;28;20040;-76
2021/10/31 09:25:26;;;;;;;14.55;9.18;;;12.80;89.80;;;;;;4957607;28;20456;-76
2021/10/31 09:27:53;;;;;;;13.98;9.20;;;12.70;90.00;;;;;;4973438;28;20073;-76
2021/10/31 09:30:19;;;;;;;14.15;9.15;;;12.70;90.20;;;;;;4962397;28;20026;-76
2021/10/31 09:32:48;;;;;;;13.35;8.80;;;12.80;90.20;;;;;;4966149;28;20116;-75
2021/10/31 09:35:16;;;;;;;14.93;7.70;;;12.70;89.80;;;;;;4959243;28;20030;-76
2021/10/31 09:37:41;;;;;;;14.82;8.38;;;12.80;89.50;;;;;;4979214;28;20080;-76
2021/10/31 09:40:07;;;;;;;13.02;7.75;;;12.80;89.70;;;;;;4972903;28;20058;-76
2021/10/31 09:42:34;;;;;;;13.77;6.78;;;12.80;89.80;;;;;;4973436;28;20082;-75
2021/10/31 09:44:59;;;;;;;14.52;7.45;;;12.80;89.50;;;;;;4960113;28;20762;-75
2021/10/31 09:47:26;;;;;;;14.90;7.95;;;12.80;89.60;;;;;;4977346;28;20034;-75
2021/10/31 09:49:52;;;;;;;12.50;7.55;;;12.80;89.70;;;;;;4972868;28;20086;-76
2021/10/31 09:52:18;;;;;;;14.70;7.53;;;12.90;89.70;;;;;;4969504;28;20023;-75
2021/10/31 09:54:46;;;;;;;11.07;6.25;;;12.90;88.70;;;;;;4979554;28;20049;-75
2021/10/31 09:57:11;;;;;;;12.98;6.70;;;13.10;88.90;;;;;;4977092;28;20029;-76
2021/10/31 09:59:43;;;;;;;11.13;6.78;;;13.20;88.70;;;;;;4980590;28;20035;-74
2021/10/31 10:02:14;;;;;;;13.70;6.53;;;13.40;87.80;;;;;;4971120;28;20038;-74
2021/10/31 10:04:50;;;;;;;10.32;5.95;;;13.50;87.50;;;;;;4958974;28;20412;-76
2021/10/31 10:07:18;;;;;;;12.02;6.18;;;13.60;87.70;;;;;;4978122;28;20034;-75
2021/10/31 10:09:55;;;;;;;10.10;6.15;;;13.70;86.40;;;;;;4975625;28;20029;-76
2021/10/31 10:12:27;;;;;;;10.35;5.78;;;13.80;86.90;;;;;;4955883;28;20050;-76
2021/10/31 10:15:07;;;;;;;11.77;6.22;;;13.90;86.30;;;;;;4964252;28;20407;-75
2021/10/31 10:17:48;;;;;;;12.95;5.82;;;13.80;85.40;;;;;;4960931;28;20140;-76
2021/10/31 10:20:14;;;;;;;10.48;5.53;;;13.80;85.90;;;;;;4955622;28;20054;-75
2021/10/31 10:22:41;;;;;;;10.95;5.32;;;13.90;85.50;;;;;;4964797;28;20037;-76
2021/10/31 10:25:06;;;;;;;9.77;5.30;;;13.80;85.50;;;;;;4981851;28;20031;-75
2021/10/31 10:27:44;;;;;;;10.88;5.10;;;13.90;86.00;;;;;;4960037;28;20124;-75
2021/10/31 10:30:14;;;;;;;9.85;5.95;;;14.10;86.30;;;;;;4975175;28;20042;-76
2021/10/31 10:32:50;;;;;;;11.55;6.28;;;14.30;84.80;;;;;;4977977;28;20471;-75
2021/10/31 10:35:17;;;;;;;7.85;4.88;;;14.40;84.00;;;;;;4970371;28;20038;-76
2021/10/31 10:37:43;;;;;;;9.10;4.90;;;14.60;84.50;;;;;;4959480;28;20030;-75
2021/10/31 10:40:12;;;;;;;10.23;5.15;;;14.80;83.60;;;;;;4962762;28;20105;-76
2021/10/31 10:42:41;;;;;;;7.28;4.93;;;15.00;82.90;;;;;;4971080;28;20528;-76
2021/10/31 10:45:14;;;;;;;8.88;4.78;;;14.90;82.20;;;;;;4951547;28;20061;-75
2021/10/31 10:47:53;;;;;;;8.98;4.60;;;14.80;82.70;;;;;;4977633;28;20393;-75
2021/10/31 10:50:22;;;;;;;7.35;4.57;;;14.80;81.40;;;;;;4981444;28;20092;-76
2021/10/31 10:52:47;;;;;;;7.65;5.18;;;14.90;81.80;;;;;;4971300;28;20113;-76
2021/10/31 10:55:17;;;;;;;9.02;4.53;;;14.80;83.20;;;;;;4971875;28;20034;-75
2021/10/31 10:57:49;;;;;;;13.60;5.15;;;15.00;83.20;;;;;;4975174;28;20089;-76
2021/10/31 11:00:18;;;;;;;8.23;5.05;;;14.90;82.20;;;;;;4964750;28;20457;-76
2021/10/31 11:02:45;;;;;;;7.03;4.50;;;15.00;81.50;;;;;;4977468;28;20192;-76
2021/10/31 11:05:14;;;;;;;7.70;4.88;;;15.20;81.80;;;;;;4957242;28;20332;-76
2021/10/31 11:07:46;;;;;;;8.38;4.55;;;15.00;80.90;;;;;;4964649;28;20037;-76
2021/10/31 11:10:25;;;;;;;8.40;4.53;;;15.10;81.80;;;;;;4960328;28;20394;-75
2021/10/31 11:12:59;;;;;;;8.30;4.57;;;15.30;81.80;;;;;;4985045;28;20030;-75
2021/10/31 11:15:27;;;;;;;8.35;5.07;;;15.40;80.50;;;;;;4959332;28;20200;-76
2021/10/31 11:17:55;;;;;;;6.68;4.78;;;15.30;81.10;;;;;;4971431;28;20035;-76
2021/10/31 11:20:24;;;;;;;13.73;5.53;;;15.30;81.30;;;;;;4955384;28;20041;-75
2021/10/31 11:22:53;;;;;;;7.05;4.97;;;15.40;81.10;;;;;;4974748;28;20110;-76
2021/10/31 11:25:20;;;;;;;9.23;5.38;;;15.50;81.80;;;;;;4960235;28;20033;-77
2021/10/31 11:27:50;;;;;;;8.45;4.63;;;15.20;80.50;;;;;;4970833;28;20213;-75
2021/10/31 11:30:18;;;;;;;6.95;4.70;;;15.30;81.40;;;;;;4977003;28;20042;-75
2021/10/31 11:32:44;;;;;;;7.05;4.28;;;15.50;80.50;;;;;;4966093;28;20259;-76
2021/10/31 11:35:13;;;;;;;8.35;4.75;;;15.60;80.60;;;;;;4984889;28;20062;-75
2021/10/31 11:37:40;;;;;;;7.57;4.32;;;15.70;79.90;;;;;;4975000;28;20197;-75
2021/10/31 11:40:08;;;;;;;6.63;4.40;;;15.70;80.10;;;;;;4977425;28;20066;-76
2021/10/31 11:42:45;;;;;;;6.45;4.20;;;15.80;79.70;;;;;;4981065;28;20081;-76
2021/10/31 11:45:17;;;;;;;6.63;4.10;;;16.00;77.50;;;;;;4969728;28;20041;-76
2021/10/31 11:47:47;;;;;;;6.45;3.92;;;16.00;77.40;;;;;;4978507;28;20049;-77
2021/10/31 11:50:19;;;;;;;8.48;4.55;;;16.10;78.10;;;;;;4951058;28;20027;-75
2021/10/31 11:52:54;;;;;;;7.65;4.50;;;16.00;78.20;;;;;;4963211;28;20046;-76
2021/10/31 11:55:28;;;;;;;7.57;3.90;;;16.10;77.80;;;;;;4974616;28;20389;-76
2021/10/31 11:58:14;;;;;;;9.30;4.78;;;16.20;77.50;;;;;;4970588;28;20030;-76
2021/10/31 12:00:50;;;;;;;7.55;4.07;;;16.10;77.40;;;;;;4974012;28;20031;-76
2021/10/31 12:03:40;;;;;;;7.70;4.00;;;16.60;78.00;;;;;;4956575;28;20117;-75
2021/10/31 12:06:15;;;;;;;4.95;3.33;;;16.20;77.60;;;;;;4958561;28;20026;-76
2021/10/31 12:09:07;;;;;;;6.55;3.95;;;16.20;78.10;;;;;;4961129;28;20123;-77
2021/10/31 12:11:32;;;;;;;6.97;4.35;;;16.50;76.70;;;;;;4969889;28;20354;-76
2021/10/31 12:13:59;;;;;;;7.95;3.80;;;16.50;77.40;;;;;;4974103;28;20113;-76
2021/10/31 12:16:26;;;;;;;6.88;3.85;;;16.30;77.70;;;;;;4965388;28;20022;-76
2021/10/31 12:18:54;;;;;;;6.97;4.38;;;16.00;78.60;;;;;;4970542;28;20109;-75
2021/10/31 12:21:33;;;;;;;5.82;3.97;;;16.00;78.70;;;;;;4971748;28;20519;-76
2021/10/31 12:24:00;;;;;;;7.20;4.30;;;15.70;79.10;;;;;;4956783;28;20592;-76
2021/10/31 12:26:31;;;;;;;7.53;4.63;;;15.90;79.10;;;;;;4989265;28;20114;-76
2021/10/31 12:29:10;;;;;;;;;;;15.90;79.60;;;;;;4974956;28;20030;-76
2021/10/31 12:31:36;;;;;;;6.40;4.13;;;16.30;78.10;;;;;;4961159;28;20068;-76
2021/10/31 12:34:12;;;;;;;5.68;3.55;;;16.30;77.70;;;;;;4977048;28;20026;-76
2021/10/31 12:36:41;;;;;;;6.47;4.22;;;16.60;77.40;;;;;;4964367;28;20034;-76
2021/10/31 12:39:25;;;;;;;6.38;3.90;;;16.50;77.20;;;;;;4980645;28;20042;-76
2021/10/31 12:42:10;;;;;;;7.15;4.05;;;16.50;77.00;;;;;;4980265;28;20274;-76
2021/10/31 12:44:35;;;;;;;5.15;3.45;;;16.10;78.20;;;;;;4976759;28;20132;-76